Time,TemperatureF,DewpointF,PressureIn,WindDirection,WindDirectionDegrees,WindSpeedMPH,WindSpeedGustMPH,Humidity,HourlyPrecipIn,Conditions,Clouds,dailyrainin,SoftwareType,DateUTC
2017-05-29 00:02:00,58.9,55.7,29.90,SSW,206,0.0,0.0,89,0.00,,FEW,0.00,VWS V13.01,2017-05-29 07:02:00,
2017-05-29 00:07:00,58.9,55.7,29.90,SSW,206,0.0,0.0,89,0.00,,FEW,0.00,VWS V13.01,2017-05-29 07:07:00,
2017-05-29 00:12:00,58.7,55.5,29.90,SSW,206,0.0,0.0,89,0.00,,FEW,0.00,VWS V13.01,2017-05-29 07:12:00,
2017-05-29 00:17:00,58.6,55.4,29.90,SSW,206,0.0,0.0,89,0.00,,FEW,0.00,VWS V13.01,2017-05-29 07:17:00,
2017-05-29 00:22:00,58.5,55.3,29.90,SSW,206,0.0,0.0,89,0.00,,FEW,0.00,VWS V13.01,2017-05-29 07:22:00,
2017-05-29 00:27:00,58.4,55.2,29.90,SSW,206,0.0,0.0,89,0.00,,FEW,0.00,VWS V13.01,2017-05-29 07:27:00,
2017-05-29 00:32:00,58.3,55.1,29.90,SSW,206,0.0,0.0,89,0.00,,FEW,0.00,VWS V13.01,2017-05-29 07:32:00,
2017-05-29 00:37:00,58.2,55.3,29.89,West,274,0.0,0.0,90,0.00,,FEW,0.00,VWS V13.01,2017-05-29 07:37:00,
2017-05-29 00:42:00,58.1,55.2,29.89,West,274,0.0,0.0,90,0.00,,FEW,0.00,VWS V13.01,2017-05-29 07:42:00,
2017-05-29 00:47:00,58.0,55.1,29.89,West,274,0.0,0.0,90,0.00,,FEW,0.00,VWS V13.01,2017-05-29 07:47:00,
2017-05-29 00:52:00,57.8,55.2,29.89,West,274,0.0,0.0,91,0.00,,FEW,0.00,VWS V13.01,2017-05-29 07:52:00,
2017-05-29 00:58:00,57.7,54.8,29.89,West,273,0.0,0.0,90,0.00,,FEW,0.00,VWS V13.01,2017-05-29 07:58:00,
2017-05-29 01:03:00,57.4,54.5,29.89,SE,140,0.0,0.0,90,0.00,,FEW,0.00,VWS V13.01,2017-05-29 08:03:00,
2017-05-29 01:08:00,57.2,54.6,29.89,SE,140,0.0,0.0,91,0.00,,FEW,0.00,VWS V13.01,2017-05-29 08:08:00,
2017-05-29 01:13:00,57.1,54.5,29.89,SE,140,0.0,0.0,91,0.00,,FEW,0.00,VWS V13.01,2017-05-29 08:13:00,
2017-05-29 01:18:00,57.2,54.6,29.89,SE,140,0.0,0.0,91,0.00,,FEW,0.00,VWS V13.01,2017-05-29 08:18:00,
2017-05-29 01:23:00,57.2,54.6,29.89,SE,139,0.0,0.0,91,0.00,,FEW,0.00,VWS V13.01,2017-05-29 08:23:00,
2017-05-29 01:28:00,57.2,54.6,29.89,SE,140,0.0,0.0,91,0.00,,FEW,0.00,VWS V13.01,2017-05-29 08:28:00,
2017-05-29 01:33:00,57.2,54.6,29.88,SE,140,0.0,0.0,91,0.00,,FEW,0.00,VWS V13.01,2017-05-29 08:33:00,
2017-05-29 01:38:00,57.2,54.6,29.88,SE,140,0.0,0.0,91,0.00,,FEW,0.00,VWS V13.01,2017-05-29 08:38:00,
2017-05-29 01:43:00,57.2,54.6,29.88,SE,140,0.0,0.0,91,0.00,,FEW,0.00,VWS V13.01,2017-05-29 08:43:00,
2017-05-29 01:48:00,57.1,54.5,29.88,SE,140,0.0,0.0,91,0.00,,FEW,0.00,VWS V13.01,2017-05-29 08:48:00,
2017-05-29 01:54:00,57.0,54.4,29.88,SE,140,0.0,0.0,91,0.00,,FEW,0.00,VWS V13.01,2017-05-29 08:54:00,
2017-05-29 01:59:00,56.9,54.3,29.88,ENE,68,0.0,0.0,91,0.00,,FEW,0.00,VWS V13.01,2017-05-29 08:59:00,
2017-05-29 02:04:00,56.8,54.2,29.88,ENE,68,0.0,0.0,91,0.00,,FEW,0.00,VWS V13.01,2017-05-29 09:04:00,
2017-05-29 02:09:00,56.7,54.1,29.88,ENE,68,0.0,0.0,91,0.00,,FEW,0.00,VWS V13.01,2017-05-29 09:09:00,
2017-05-29 02:19:00,56.5,53.9,29.88,ENE,68,0.0,0.0,91,0.00,,FEW,0.00,VWS V13.01,2017-05-29 09:19:00,
2017-05-29 02:24:00,56.5,53.9,29.88,ENE,68,0.0,0.0,91,0.00,,FEW,0.00,VWS V13.01,2017-05-29 09:24:00,
2017-05-29 02:29:00,56.4,53.8,29.88,ENE,68,0.0,0.0,91,0.00,,FEW,0.00,VWS V13.01,2017-05-29 09:29:00,
2017-05-29 02:34:00,56.3,53.7,29.87,ENE,67,0.0,0.0,91,0.00,,FEW,0.00,VWS V13.01,2017-05-29 09:34:00,
2017-05-29 02:39:00,56.1,53.5,29.87,ENE,67,0.0,0.0,91,0.00,,FEW,0.00,VWS V13.01,2017-05-29 09:39:00,
2017-05-29 02:44:00,56.0,53.4,29.88,ENE,67,0.0,0.0,91,0.00,,FEW,0.00,VWS V13.01,2017-05-29 09:44:00,
2017-05-29 02:49:00,55.9,53.3,29.88,ENE,67,0.0,0.0,91,0.00,,FEW,0.00,VWS V13.01,2017-05-29 09:49:00,
2017-05-29 02:54:00,55.7,53.1,29.88,ENE,67,0.0,0.0,91,0.00,,FEW,0.00,VWS V13.01,2017-05-29 09:54:00,
2017-05-29 03:00:00,55.6,53.0,29.88,ENE,67,0.0,0.0,91,0.00,,FEW,0.00,VWS V13.01,2017-05-29 10:00:00,
2017-05-29 03:05:00,55.4,52.8,29.88,ENE,67,0.0,0.0,91,0.00,,FEW,0.00,VWS V13.01,2017-05-29 10:05:00,
2017-05-29 03:10:00,55.2,52.6,29.88,ENE,67,0.0,0.0,91,0.00,,FEW,0.00,VWS V13.01,2017-05-29 10:10:00,
2017-05-29 03:15:00,55.1,52.8,29.88,ENE,67,0.0,0.0,92,0.00,,FEW,0.00,VWS V13.01,2017-05-29 10:15:00,
2017-05-29 03:20:00,55.0,52.4,29.88,ENE,67,0.0,0.0,91,0.00,,FEW,0.00,VWS V13.01,2017-05-29 10:20:00,
2017-05-29 03:25:00,54.9,52.6,29.88,ENE,67,0.0,0.0,92,0.00,,FEW,0.00,VWS V13.01,2017-05-29 10:25:00,
2017-05-29 03:30:00,54.7,52.4,29.88,ENE,67,0.0,0.0,92,0.00,,FEW,0.00,VWS V13.01,2017-05-29 10:30:00,
2017-05-29 03:35:00,54.6,52.3,29.88,ENE,67,0.0,0.0,92,0.00,,FEW,0.00,VWS V13.01,2017-05-29 10:35:00,
2017-05-29 03:45:00,54.2,51.9,29.88,ENE,67,0.0,0.0,92,0.00,,FEW,0.00,VWS V13.01,2017-05-29 10:45:00,
2017-05-29 03:50:00,54.0,51.7,29.87,ENE,67,0.0,0.0,92,0.00,,FEW,0.00,VWS V13.01,2017-05-29 10:50:00,
2017-05-29 03:55:00,53.8,51.5,29.87,ENE,67,0.0,0.0,92,0.00,,FEW,0.00,VWS V13.01,2017-05-29 10:55:00,
2017-05-29 04:00:00,53.6,51.3,29.87,ENE,67,0.0,0.0,92,0.00,,FEW,0.00,VWS V13.01,2017-05-29 11:00:00,
2017-05-29 04:06:00,53.4,51.1,29.87,ENE,67,0.0,0.0,92,0.00,,FEW,0.00,VWS V13.01,2017-05-29 11:06:00,
2017-05-29 04:11:00,53.3,51.3,29.87,ENE,67,0.0,0.0,93,0.00,,FEW,0.00,VWS V13.01,2017-05-29 11:11:00,
2017-05-29 04:16:00,53.2,51.2,29.87,ENE,67,0.0,0.0,93,0.00,,FEW,0.00,VWS V13.01,2017-05-29 11:16:00,
2017-05-29 04:21:00,53.0,51.0,29.87,ENE,67,0.0,0.0,93,0.00,,FEW,0.00,VWS V13.01,2017-05-29 11:21:00,
2017-05-29 04:26:00,52.9,50.9,29.87,ENE,67,0.0,0.0,93,0.00,,FEW,0.00,VWS V13.01,2017-05-29 11:26:00,
2017-05-29 04:31:00,52.8,50.8,29.87,ENE,67,0.0,0.0,93,0.00,,FEW,0.00,VWS V13.01,2017-05-29 11:31:00,
2017-05-29 04:36:00,52.7,50.7,29.87,ENE,67,0.0,0.0,93,0.00,,FEW,0.00,VWS V13.01,2017-05-29 11:36:00,
2017-05-29 04:41:00,52.6,50.6,29.87,ENE,67,0.0,0.0,93,0.00,,FEW,0.00,VWS V13.01,2017-05-29 11:41:00,
2017-05-29 04:46:00,52.5,50.5,29.87,ENE,67,0.0,0.0,93,0.00,,FEW,0.00,VWS V13.01,2017-05-29 11:46:00,
2017-05-29 04:51:00,52.4,50.4,29.87,ENE,67,0.0,0.0,93,0.00,,FEW,0.00,VWS V13.01,2017-05-29 11:51:00,
2017-05-29 04:56:00,52.4,50.4,29.87,ENE,67,0.0,0.0,93,0.00,,FEW,0.00,VWS V13.01,2017-05-29 11:56:00,
2017-05-29 05:00:00,52.3,50.3,29.87,ENE,67,0.0,0.0,93,0.00,,FEW,0.00,VWS V13.01,2017-05-29 12:00:00,
2017-05-29 05:05:00,52.2,50.2,29.87,ENE,67,0.0,0.0,93,0.00,,FEW,0.00,VWS V13.01,2017-05-29 12:05:00,
2017-05-29 05:10:00,52.1,50.1,29.87,ENE,67,0.0,0.0,93,0.00,,FEW,0.00,VWS V13.01,2017-05-29 12:10:00,
2017-05-29 05:15:00,52.1,50.1,29.87,ENE,67,0.0,0.0,93,0.00,,FEW,0.00,VWS V13.01,2017-05-29 12:15:00,
2017-05-29 05:21:00,52.0,50.0,29.87,ENE,67,0.0,0.0,93,0.00,,FEW,0.00,VWS V13.01,2017-05-29 12:21:00,
2017-05-29 05:26:00,51.9,50.2,29.87,ENE,67,0.0,0.0,94,0.00,,FEW,0.00,VWS V13.01,2017-05-29 12:26:00,
2017-05-29 05:31:00,51.8,49.8,29.87,ENE,67,0.0,0.0,93,0.00,,FEW,0.00,VWS V13.01,2017-05-29 12:31:00,
2017-05-29 05:36:00,51.7,50.0,29.87,ENE,67,0.0,0.0,94,0.00,,FEW,0.00,VWS V13.01,2017-05-29 12:36:00,
2017-05-29 05:41:00,51.7,50.0,29.87,ENE,67,0.0,0.0,94,0.00,,FEW,0.00,VWS V13.01,2017-05-29 12:41:00,
2017-05-29 05:46:00,51.7,50.0,29.87,ENE,67,0.0,0.0,94,0.00,,FEW,0.00,VWS V13.01,2017-05-29 12:46:00,
2017-05-29 05:51:00,51.8,50.1,29.87,ENE,67,0.0,0.0,94,0.00,,FEW,0.00,VWS V13.01,2017-05-29 12:51:00,
2017-05-29 05:56:00,51.8,50.1,29.87,ENE,67,0.0,0.0,94,0.00,,FEW,0.00,VWS V13.01,2017-05-29 12:56:00,
2017-05-29 06:01:00,51.9,49.9,29.88,ENE,67,0.0,0.0,93,0.00,,FEW,0.00,VWS V13.01,2017-05-29 13:01:00,
2017-05-29 06:06:00,51.9,49.9,29.88,ENE,67,0.0,0.0,93,0.00,,FEW,0.00,VWS V13.01,2017-05-29 13:06:00,
2017-05-29 06:11:00,51.9,49.9,29.88,ENE,67,0.0,0.0,93,0.00,,FEW,0.00,VWS V13.01,2017-05-29 13:11:00,
2017-05-29 06:16:00,52.0,50.0,29.88,ENE,67,0.0,0.0,93,0.00,,FEW,0.00,VWS V13.01,2017-05-29 13:16:00,
2017-05-29 06:21:00,52.2,50.2,29.88,ENE,67,0.0,0.0,93,0.00,,FEW,0.00,VWS V13.01,2017-05-29 13:21:00,
2017-05-29 06:27:00,52.3,50.3,29.88,North,359,0.0,0.0,93,0.00,,FEW,0.00,VWS V13.01,2017-05-29 13:27:00,
2017-05-29 06:32:00,52.6,50.6,29.88,North,10,0.0,0.0,93,0.00,,FEW,0.00,VWS V13.01,2017-05-29 13:32:00,
2017-05-29 06:37:00,53.0,51.0,29.88,North,10,0.0,0.0,93,0.00,,FEW,0.00,VWS V13.01,2017-05-29 13:37:00,
2017-05-29 06:42:00,53.3,51.0,29.88,North,10,0.0,0.0,92,0.00,,FEW,0.00,VWS V13.01,2017-05-29 13:42:00,
2017-05-29 06:47:00,53.7,51.1,29.88,North,9,0.0,0.0,91,0.00,,FEW,0.00,VWS V13.01,2017-05-29 13:47:00,
2017-05-29 06:52:00,54.1,51.2,29.88,North,9,0.0,0.0,90,0.00,,FEW,0.00,VWS V13.01,2017-05-29 13:52:00,
2017-05-29 06:57:00,54.7,52.1,29.88,North,8,0.0,0.0,91,0.00,,FEW,0.00,VWS V13.01,2017-05-29 13:57:00,
2017-05-29 07:02:00,55.1,52.2,29.88,North,8,0.0,0.0,90,0.00,,FEW,0.00,VWS V13.01,2017-05-29 14:02:00,
2017-05-29 07:07:00,55.4,51.9,29.88,North,8,0.0,0.0,88,0.00,,FEW,0.00,VWS V13.01,2017-05-29 14:07:00,
2017-05-29 07:12:00,55.7,51.9,29.88,North,8,0.0,0.0,87,0.00,,FEW,0.00,VWS V13.01,2017-05-29 14:12:00,
2017-05-29 07:17:00,56.1,52.6,29.87,North,11,0.0,0.0,88,0.00,,FEW,0.00,VWS V13.01,2017-05-29 14:17:00,
2017-05-29 07:22:00,56.6,53.1,29.87,North,10,0.0,0.0,88,0.00,,FEW,0.00,VWS V13.01,2017-05-29 14:22:00,
2017-05-29 07:27:00,57.0,52.9,29.87,North,10,0.0,0.0,86,0.00,,FEW,0.00,VWS V13.01,2017-05-29 14:27:00,
2017-05-29 07:33:00,57.7,52.9,29.87,North,10,0.0,0.0,84,0.00,,FEW,0.00,VWS V13.01,2017-05-29 14:33:00,
2017-05-29 07:38:00,58.3,53.5,29.87,North,10,0.0,0.0,84,0.00,,FEW,0.00,VWS V13.01,2017-05-29 14:38:00,
2017-05-29 07:43:00,59.0,53.5,29.87,North,10,0.0,0.0,82,0.00,,FEW,0.00,VWS V13.01,2017-05-29 14:43:00,
2017-05-29 07:48:00,59.6,53.8,29.87,North,10,0.0,0.0,81,0.00,,FEW,0.00,VWS V13.01,2017-05-29 14:48:00,
2017-05-29 07:53:00,60.4,54.5,29.87,North,10,0.0,0.0,81,0.00,,FEW,0.00,VWS V13.01,2017-05-29 14:53:00,
2017-05-29 07:58:00,61.0,55.1,29.86,North,11,0.0,0.0,81,0.00,,FEW,0.00,VWS V13.01,2017-05-29 14:58:00,
2017-05-29 08:03:00,61.4,55.5,29.86,North,11,0.0,0.0,81,0.00,,FEW,0.00,VWS V13.01,2017-05-29 15:03:00,
2017-05-29 08:08:00,62.0,56.1,29.86,North,11,0.0,0.0,81,0.00,,FEW,0.00,VWS V13.01,2017-05-29 15:08:00,
2017-05-29 08:13:00,62.4,57.2,29.86,North,11,0.0,0.0,83,0.00,,FEW,0.00,VWS V13.01,2017-05-29 15:13:00,
2017-05-29 08:18:00,62.9,57.0,29.86,North,11,0.0,0.0,81,0.00,,FEW,0.00,VWS V13.01,2017-05-29 15:18:00,
2017-05-29 08:23:00,63.4,56.4,29.86,North,11,0.0,0.0,78,0.00,,FEW,0.00,VWS V13.01,2017-05-29 15:23:00,
2017-05-29 08:28:00,64.0,56.7,29.86,North,11,0.0,0.0,77,0.00,,FEW,0.00,VWS V13.01,2017-05-29 15:28:00,
2017-05-29 08:33:00,64.7,55.9,29.86,North,11,0.0,0.0,73,0.00,,FEW,0.00,VWS V13.01,2017-05-29 15:33:00,
2017-05-29 08:39:00,65.4,56.9,29.85,North,10,0.0,0.0,74,0.00,,FEW,0.00,VWS V13.01,2017-05-29 15:39:00,
2017-05-29 08:44:00,65.9,57.0,29.85,North,10,0.0,0.0,73,0.00,,FEW,0.00,VWS V13.01,2017-05-29 15:44:00,
2017-05-29 08:49:00,66.5,56.4,29.86,North,4,0.0,0.0,70,0.00,,FEW,0.00,VWS V13.01,2017-05-29 15:49:00,
2017-05-29 08:54:00,67.1,55.8,29.86,North,4,0.0,0.0,67,0.00,,FEW,0.00,VWS V13.01,2017-05-29 15:54:00,
2017-05-29 08:59:00,67.7,56.0,29.86,North,4,0.0,0.0,66,0.00,,FEW,0.00,VWS V13.01,2017-05-29 15:59:00,
2017-05-29 09:04:00,68.3,54.8,29.86,North,4,0.0,0.0,62,0.00,,FEW,0.00,VWS V13.01,2017-05-29 16:04:00,
2017-05-29 09:09:00,68.9,56.2,29.86,North,8,0.0,0.0,64,0.00,,FEW,0.00,VWS V13.01,2017-05-29 16:09:00,
2017-05-29 09:14:00,69.5,57.2,29.85,North,4,0.0,0.0,65,0.00,,FEW,0.00,VWS V13.01,2017-05-29 16:14:00,
2017-05-29 09:19:00,70.1,57.4,29.85,North,8,0.0,0.0,64,0.00,,FEW,0.00,VWS V13.01,2017-05-29 16:19:00,
2017-05-29 09:24:00,70.6,58.3,29.85,North,8,0.0,0.0,65,0.00,,FEW,0.00,VWS V13.01,2017-05-29 16:24:00,
2017-05-29 09:34:00,72.5,57.4,29.85,North,359,0.0,0.0,59,0.00,,FEW,0.00,VWS V13.01,2017-05-29 16:34:00,
2017-05-29 09:39:00,73.1,57.0,29.85,North,359,0.0,0.0,57,0.00,,FEW,0.00,VWS V13.01,2017-05-29 16:39:00,
2017-05-29 09:44:00,73.7,56.5,29.85,North,359,0.0,0.0,55,0.00,,FEW,0.00,VWS V13.01,2017-05-29 16:44:00,
2017-05-29 09:50:00,74.6,56.9,29.85,North,349,0.0,0.0,54,0.00,,FEW,0.00,VWS V13.01,2017-05-29 16:50:00,
2017-05-29 09:55:00,75.2,56.9,29.84,NW,326,0.0,0.0,53,0.00,,FEW,0.00,VWS V13.01,2017-05-29 16:55:00,
2017-05-29 12:40:00,79.7,60.5,29.83,WNW,297,0.0,0.0,52,0.00,,FEW,0.00,VWS V13.01,2017-05-29 19:40:00,
2017-05-29 12:50:00,80.7,60.9,29.83,West,279,0.0,0.0,51,0.00,,FEW,0.00,VWS V13.01,2017-05-29 19:50:00,
2017-05-29 13:00:00,81.5,60.5,29.83,WNW,283,0.0,0.0,49,0.00,,FEW,0.00,VWS V13.01,2017-05-29 20:00:00,
2017-05-29 13:10:00,81.9,60.9,29.83,WSW,245,0.0,0.0,49,0.00,,FEW,0.00,VWS V13.01,2017-05-29 20:10:00,
2017-05-29 13:20:00,81.8,59.0,29.83,NW,313,2.0,2.0,46,0.00,,FEW,0.00,VWS V13.01,2017-05-29 20:20:00,
2017-05-29 13:30:00,82.7,58.6,29.82,West,272,0.0,0.0,44,0.00,,FEW,0.00,VWS V13.01,2017-05-29 20:30:00,
2017-05-29 13:40:00,83.3,58.5,29.82,WSW,239,0.0,0.0,43,0.00,,FEW,0.00,VWS V13.01,2017-05-29 20:40:00,
2017-05-29 13:50:00,83.0,58.2,29.82,SW,233,1.0,2.0,43,0.00,,FEW,0.00,VWS V13.01,2017-05-29 20:50:00,
2017-05-29 14:00:00,84.7,61.0,29.82,SSE,147,0.0,0.0,45,0.00,,FEW,0.00,VWS V13.01,2017-05-29 21:00:00,
2017-05-29 14:10:00,84.5,60.2,29.81,West,265,0.0,0.0,44,0.00,,FEW,0.00,VWS V13.01,2017-05-29 21:10:00,
2017-05-29 14:20:00,84.4,61.4,29.81,WNW,285,1.0,2.0,46,0.00,,FEW,0.00,VWS V13.01,2017-05-29 21:20:00,
2017-05-29 14:30:00,84.5,61.5,29.81,SE,137,1.0,1.0,46,0.00,,FEW,0.00,VWS V13.01,2017-05-29 21:30:00,
2017-05-29 14:40:00,84.1,58.5,29.81,WSW,251,0.0,0.0,42,0.00,,FEW,0.00,VWS V13.01,2017-05-29 21:40:00,
2017-05-29 14:50:00,84.3,59.4,29.80,WSW,256,0.0,0.0,43,0.00,,FEW,0.00,VWS V13.01,2017-05-29 21:50:00,
2017-05-29 15:00:00,84.3,58.1,29.80,West,268,4.0,4.0,41,0.00,,FEW,0.00,VWS V13.01,2017-05-29 22:00:00,
2017-05-29 15:10:00,83.6,60.0,29.80,WNW,287,4.0,4.0,45,0.00,,FEW,0.00,VWS V13.01,2017-05-29 22:10:00,
2017-05-29 15:20:00,84.1,59.9,29.80,West,269,0.0,0.0,44,0.00,,FEW,0.00,VWS V13.01,2017-05-29 22:20:00,
2017-05-29 15:30:00,83.9,59.7,29.80,SSW,213,0.0,0.0,44,0.00,,FEW,0.00,VWS V13.01,2017-05-29 22:30:00,
2017-05-29 15:40:00,83.8,58.9,29.80,WSW,237,0.0,0.0,43,0.00,,FEW,0.00,VWS V13.01,2017-05-29 22:40:00,
2017-05-29 15:50:00,83.3,59.1,29.79,WNW,303,1.0,2.0,44,0.00,,FEW,0.00,VWS V13.01,2017-05-29 22:50:00,
2017-05-29 16:00:00,83.6,61.3,29.80,West,264,0.0,0.0,47,0.00,,FEW,0.00,VWS V13.01,2017-05-29 23:00:00,
2017-05-29 16:10:00,83.3,59.1,29.79,SSW,197,0.0,0.0,44,0.00,,FEW,0.00,VWS V13.01,2017-05-29 23:10:00,
2017-05-29 16:20:00,83.9,60.3,29.80,West,262,0.0,0.0,45,0.00,,FEW,0.00,VWS V13.01,2017-05-29 23:20:00,
2017-05-29 16:30:00,84.1,59.9,29.79,South,181,0.0,0.0,44,0.00,,FEW,0.00,VWS V13.01,2017-05-29 23:30:00,
2017-05-29 16:40:00,82.9,60.6,29.79,SW,224,0.0,0.0,47,0.00,,FEW,0.00,VWS V13.01,2017-05-29 23:40:00,
2017-05-29 16:50:00,83.4,59.2,29.79,SW,226,0.0,0.0,44,0.00,,FEW,0.00,VWS V13.01,2017-05-29 23:50:00,
2017-05-29 17:00:00,83.8,59.6,29.79,WSW,250,0.0,0.0,44,0.00,,FEW,0.00,VWS V13.01,2017-05-30 00:00:00,
2017-05-29 17:10:00,84.2,60.6,29.79,WSW,249,0.0,0.0,45,0.00,,FEW,0.00,VWS V13.01,2017-05-30 00:10:00,
2017-05-29 17:20:00,84.8,59.8,29.79,West,278,0.0,0.0,43,0.00,,FEW,0.00,VWS V13.01,2017-05-30 00:20:00,
2017-05-29 17:30:00,84.8,61.1,29.78,West,276,0.0,0.0,45,0.00,,FEW,0.00,VWS V13.01,2017-05-30 00:30:00,
2017-05-29 17:40:00,83.5,58.7,29.78,West,276,0.0,0.0,43,0.00,,FEW,0.00,VWS V13.01,2017-05-30 00:40:00,
2017-05-29 17:50:00,83.3,59.1,29.77,West,276,0.0,0.0,44,0.00,,FEW,0.00,VWS V13.01,2017-05-30 00:50:00,
2017-05-29 18:00:00,83.3,58.5,29.77,SW,233,0.0,0.0,43,0.00,,FEW,0.00,VWS V13.01,2017-05-30 01:00:00,
2017-05-29 18:10:00,82.7,58.6,29.77,WSW,243,0.0,0.0,44,0.00,,FEW,0.00,VWS V13.01,2017-05-30 01:10:00,
2017-05-29 18:20:00,82.9,59.4,29.77,WSW,243,0.0,0.0,45,0.00,,FEW,0.00,VWS V13.01,2017-05-30 01:20:00,
2017-05-29 18:30:00,82.3,58.2,29.77,WNW,297,0.0,0.0,44,0.00,,FEW,0.00,VWS V13.01,2017-05-30 01:30:00,
2017-05-29 18:40:00,81.4,58.7,29.77,West,272,0.0,0.0,46,0.00,,FEW,0.00,VWS V13.01,2017-05-30 01:40:00,
2017-05-29 18:50:00,80.9,58.8,29.77,West,270,2.0,2.0,47,0.00,,FEW,0.00,VWS V13.01,2017-05-30 01:50:00,
2017-05-29 19:00:00,80.6,58.5,29.77,NW,305,0.0,0.0,47,0.00,,FEW,0.00,VWS V13.01,2017-05-30 02:00:00,
2017-05-29 19:10:00,80.4,57.8,29.78,WNW,297,0.0,0.0,46,0.00,,FEW,0.00,VWS V13.01,2017-05-30 02:10:00,
2017-05-29 19:20:00,80.1,60.4,29.78,WNW,297,0.0,0.0,51,0.00,,FEW,0.00,VWS V13.01,2017-05-30 02:20:00,
2017-05-29 19:30:00,79.7,60.5,29.78,WNW,297,0.0,0.0,52,0.00,,FEW,0.00,VWS V13.01,2017-05-30 02:30:00,
2017-05-29 19:40:00,79.4,62.3,29.78,WNW,297,0.0,0.0,56,0.00,,FEW,0.00,VWS V13.01,2017-05-30 02:40:00,
2017-05-29 19:50:00,78.4,61.4,29.78,WNW,297,0.0,0.0,56,0.00,,FEW,0.00,VWS V13.01,2017-05-30 02:50:00,
2017-05-29 20:00:00,77.6,61.7,29.79,WNW,297,0.0,0.0,58,0.00,,FEW,0.00,VWS V13.01,2017-05-30 03:00:00,
2017-05-29 20:10:00,76.7,62.2,29.79,WNW,297,0.0,0.0,61,0.00,,FEW,0.00,VWS V13.01,2017-05-30 03:10:00,
2017-05-29 20:20:00,75.4,62.4,29.78,WNW,297,0.0,0.0,64,0.00,,FEW,0.00,VWS V13.01,2017-05-30 03:20:00,
2017-05-29 20:30:00,74.1,62.5,29.79,WNW,297,0.0,0.0,67,0.00,,FEW,0.00,VWS V13.01,2017-05-30 03:30:00,
2017-05-29 20:40:00,73.0,62.2,29.79,WNW,297,0.0,0.0,69,0.00,,FEW,0.00,VWS V13.01,2017-05-30 03:40:00,
2017-05-29 20:50:00,72.2,62.7,29.79,WNW,297,0.0,0.0,72,0.00,,FEW,0.00,VWS V13.01,2017-05-30 03:50:00,
2017-05-29 21:00:00,71.1,62.0,29.80,WNW,297,0.0,0.0,73,0.00,,FEW,0.00,VWS V13.01,2017-05-30 04:00:00,
2017-05-29 21:10:00,70.1,61.8,29.81,WNW,297,0.0,0.0,75,0.00,,FEW,0.00,VWS V13.01,2017-05-30 04:10:00,
2017-05-29 21:20:00,69.5,61.6,29.81,WNW,297,0.0,0.0,76,0.00,,FEW,0.00,VWS V13.01,2017-05-30 04:20:00,
2017-05-29 21:30:00,68.6,61.1,29.81,WNW,297,0.0,0.0,77,0.00,,FEW,0.00,VWS V13.01,2017-05-30 04:30:00,
2017-05-29 21:40:00,67.8,61.1,29.81,WNW,297,0.0,0.0,79,0.00,,FEW,0.00,VWS V13.01,2017-05-30 04:40:00,
2017-05-29 21:50:00,66.9,60.2,29.80,WNW,297,0.0,0.0,79,0.00,,FEW,0.00,VWS V13.01,2017-05-30 04:50:00,
2017-05-29 22:00:00,66.3,60.0,29.80,WNW,297,0.0,0.0,80,0.00,,FEW,0.00,VWS V13.01,2017-05-30 05:00:00,
2017-05-29 22:10:00,65.6,59.3,29.80,WNW,297,0.0,0.0,80,0.00,,FEW,0.00,VWS V13.01,2017-05-30 05:10:00,
2017-05-29 22:20:00,65.1,59.8,29.80,WNW,297,0.0,0.0,83,0.00,,FEW,0.00,VWS V13.01,2017-05-30 05:20:00,
2017-05-29 22:30:00,64.2,58.6,29.80,WNW,297,0.0,0.0,82,0.00,,FEW,0.00,VWS V13.01,2017-05-30 05:30:00,
2017-05-29 22:40:00,63.6,58.7,29.80,WNW,297,0.0,0.0,84,0.00,,FEW,0.00,VWS V13.01,2017-05-30 05:40:00,
2017-05-29 22:50:00,63.1,58.2,29.80,WNW,297,0.0,0.0,84,0.00,,FEW,0.00,VWS V13.01,2017-05-30 05:50:00,
2017-05-29 23:00:00,62.5,57.9,29.81,WNW,297,0.0,0.0,85,0.00,,FEW,0.00,VWS V13.01,2017-05-30 06:00:00,
2017-05-29 23:10:00,62.0,57.8,29.81,WNW,297,0.0,0.0,86,0.00,,FEW,0.00,VWS V13.01,2017-05-30 06:10:00,
2017-05-29 23:20:00,61.6,57.4,29.81,WNW,297,0.0,0.0,86,0.00,,FEW,0.00,VWS V13.01,2017-05-30 06:20:00,
2017-05-29 23:30:00,61.1,57.2,29.81,WNW,297,0.0,0.0,87,0.00,,FEW,0.00,VWS V13.01,2017-05-30 06:30:00,
2017-05-29 23:40:00,60.6,56.7,29.81,WNW,297,0.0,0.0,87,0.00,,FEW,0.00,VWS V13.01,2017-05-30 06:40:00,